createdAt,value
2018-05-14T00:02:19.947Z,87.40
2018-05-14T00:04:45.832Z,87.86
2018-05-14T00:07:11.719Z,88.29
2018-05-14T00:09:37.647Z,88.33
2018-05-14T00:12:03.552Z,88.51
2018-05-14T00:14:29.453Z,87.72
2018-05-14T00:16:55.361Z,87.87
2018-05-14T00:19:21.251Z,87.72
2018-05-14T00:21:47.184Z,87.76
2018-05-14T00:24:13.074Z,87.03
2018-05-14T00:26:38.991Z,86.99
2018-05-14T00:29:04.932Z,87.69
2018-05-14T00:31:30.832Z,87.34
2018-05-14T00:33:56.723Z,87.92
2018-05-14T00:36:22.610Z,88.73
2018-05-14T00:38:48.471Z,88.49
2018-05-14T00:41:14.351Z,88.09
2018-05-14T00:43:40.250Z,88.79
2018-05-14T00:46:06.128Z,89.07
2018-05-14T00:48:31.997Z,89.58
2018-05-14T00:50:57.936Z,88.81
2018-05-14T00:53:23.837Z,89.80
2018-05-14T00:55:49.740Z,90.50
2018-05-14T00:58:15.648Z,90.62
2018-05-14T01:00:41.557Z,90.39
2018-05-14T01:03:07.493Z,89.85
2018-05-14T01:05:33.383Z,88.86
2018-05-14T01:07:59.340Z,88.99
2018-05-14T01:10:25.208Z,89.46
2018-05-14T01:12:51.120Z,88.87
2018-05-14T01:15:17.040Z,90.36
2018-05-14T01:17:44.817Z,89.61
2018-05-14T01:20:10.759Z,89.96
2018-05-14T01:22:39.717Z,89.53
2018-05-14T01:25:05.703Z,89.12
2018-05-14T01:27:35.236Z,89.36
2018-05-14T01:30:01.102Z,89.40
2018-05-14T01:32:29.432Z,88.80
2018-05-14T01:34:55.325Z,88.67
2018-05-14T01:37:21.214Z,88.68
2018-05-14T01:39:47.123Z,88.74
2018-05-14T01:42:13.023Z,88.55
2018-05-14T01:44:41.015Z,88.56
2018-05-14T01:47:07.123Z,87.91
2018-05-14T01:49:36.471Z,88.44
2018-05-14T01:52:02.392Z,89.38
2018-05-14T01:54:31.951Z,89.33
2018-05-14T01:56:57.928Z,88.26
2018-05-14T01:59:25.044Z,88.46
2018-05-14T02:01:50.980Z,87.98
2018-05-14T02:04:20.709Z,87.91
2018-05-14T02:06:46.646Z,87.40
2018-05-14T02:09:15.859Z,87.52
2018-05-14T02:11:41.809Z,87.53
2018-05-14T02:14:07.694Z,86.99
2018-05-14T02:16:33.587Z,87.43
2018-05-14T02:18:59.500Z,88.50
2018-05-14T02:21:26.836Z,87.61
2018-05-14T02:23:52.753Z,86.98
2018-05-14T02:26:22.011Z,87.31
2018-05-14T02:28:47.899Z,87.12
2018-05-14T02:31:17.173Z,87.33
2018-05-14T02:33:43.232Z,87.70
2018-05-14T02:36:10.212Z,88.14
2018-05-14T02:38:36.108Z,88.60
2018-05-14T02:41:05.334Z,88.25
2018-05-14T02:43:31.262Z,87.62
2018-05-14T02:46:00.696Z,87.23
2018-05-14T02:48:26.562Z,86.37
2018-05-14T02:50:52.450Z,86.58
2018-05-14T02:53:18.389Z,85.96
2018-05-14T02:55:44.281Z,85.92
2018-05-14T02:58:11.523Z,85.87
2018-05-14T03:00:37.456Z,86.09
2018-05-14T03:03:06.646Z,86.04
2018-05-14T03:05:32.535Z,85.11
2018-05-14T03:08:01.900Z,85.64
2018-05-14T03:10:27.823Z,85.32
2018-05-14T03:12:56.960Z,85.98
2018-05-14T03:15:22.862Z,85.96
2018-05-14T03:17:50.324Z,86.07
2018-05-14T03:20:16.166Z,86.23
2018-05-14T03:22:44.964Z,85.87
2018-05-14T03:25:10.817Z,86.54
2018-05-14T03:27:36.745Z,86.84
2018-05-14T03:30:02.757Z,86.95
2018-05-14T03:32:28.710Z,86.31
2018-05-14T03:34:58.130Z,85.48
2018-05-14T03:37:24.029Z,86.74
2018-05-14T03:39:51.411Z,86.99
2018-05-14T03:42:17.279Z,86.35
2018-05-14T03:44:46.810Z,85.66
2018-05-14T03:47:12.774Z,85.24
2018-05-14T03:49:42.347Z,84.44
2018-05-14T03:52:08.228Z,84.39
2018-05-14T03:54:37.402Z,85.21
2018-05-14T03:57:03.313Z,84.55
2018-05-14T03:59:42.265Z,85.02
2018-05-14T04:02:18.437Z,85.22
2018-05-14T04:04:56.724Z,85.33
2018-05-14T04:07:22.620Z,85.13
2018-05-14T04:09:48.523Z,84.75
2018-05-14T04:12:14.434Z,85.66
2018-05-14T04:14:40.957Z,86.30
2018-05-14T04:17:06.909Z,85.63
2018-05-14T04:19:32.762Z,84.44
2018-05-14T04:21:58.646Z,84.93
2018-05-14T04:24:24.600Z,84.59
2018-05-14T04:26:50.450Z,84.57
2018-05-14T04:29:16.364Z,84.61
2018-05-14T04:31:42.279Z,84.35
2018-05-14T04:34:08.181Z,84.27
2018-05-14T04:36:34.042Z,84.47
2018-05-14T04:39:00.001Z,84.43
2018-05-14T04:41:25.898Z,84.50
2018-05-14T04:43:51.800Z,84.54
2018-05-14T04:46:17.696Z,84.86
2018-05-14T04:48:43.634Z,84.32
2018-05-14T04:51:09.532Z,84.03
2018-05-14T04:53:35.416Z,84.14
2018-05-14T04:56:01.287Z,84.67
2018-05-14T05:07:05.465Z,83.96
2018-05-14T05:09:31.414Z,83.26
2018-05-14T05:11:57.311Z,82.90
2018-05-14T05:14:23.256Z,83.79
2018-05-14T05:16:49.134Z,83.50
2018-05-14T05:19:15.039Z,84.30
2018-05-14T05:21:40.950Z,83.84
2018-05-14T05:24:06.846Z,84.14
2018-05-14T05:26:32.779Z,84.18
2018-05-14T05:28:58.783Z,84.44
2018-05-14T05:31:24.691Z,85.00
2018-05-14T05:33:51.400Z,85.68
2018-05-14T05:36:17.340Z,86.64
2018-05-14T05:38:43.243Z,86.58
2018-05-14T05:41:09.194Z,86.35
2018-05-14T05:43:35.140Z,85.99
2018-05-14T05:46:02.934Z,86.17
2018-05-14T05:48:28.852Z,85.76
2018-05-14T05:50:58.139Z,85.99
2018-05-14T05:53:24.008Z,85.72
2018-05-14T05:55:53.377Z,86.00
2018-05-14T05:58:19.284Z,85.76
2018-05-14T06:00:48.588Z,85.45
2018-05-14T06:03:14.461Z,85.09
2018-05-14T06:05:41.673Z,85.09
2018-05-14T06:08:07.575Z,85.04
2018-05-14T06:10:37.140Z,84.93
2018-05-14T06:13:03.054Z,84.55
2018-05-14T06:15:29.015Z,84.56
2018-05-14T06:17:54.865Z,85.33
2018-05-14T06:20:20.744Z,84.91
2018-05-14T06:22:47.884Z,84.69
2018-05-14T06:25:13.803Z,84.58
2018-05-14T06:27:43.821Z,84.27
2018-05-14T06:30:09.645Z,84.69
2018-05-14T06:32:38.883Z,84.63
2018-05-14T06:35:04.808Z,84.76
2018-05-14T06:37:33.827Z,85.23
2018-05-14T06:39:59.747Z,85.78
2018-05-14T06:42:27.039Z,84.95
2018-05-14T06:44:52.948Z,84.98
2018-05-14T06:47:22.540Z,85.20
2018-05-14T06:49:48.540Z,85.46
2018-05-14T06:52:14.400Z,84.55
2018-05-14T06:54:40.267Z,84.19
2018-05-14T06:57:06.183Z,85.26
2018-05-14T06:59:33.924Z,84.72
2018-05-14T07:01:59.804Z,83.65
2018-05-14T07:04:29.075Z,83.38
2018-05-14T07:06:55.003Z,83.74
2018-05-14T07:09:24.191Z,83.20
2018-05-14T07:11:50.064Z,83.00
2018-05-14T07:14:17.323Z,82.77
2018-05-14T07:16:43.212Z,82.96
2018-05-14T07:19:12.233Z,82.70
2018-05-14T07:33:35.257Z,83.75
2018-05-14T07:36:01.168Z,82.59
2018-05-14T07:38:27.078Z,82.41
2018-05-14T07:40:52.968Z,81.38
2018-05-14T07:43:18.897Z,81.35
2018-05-14T07:45:44.842Z,80.36
2018-05-14T07:48:10.710Z,81.54
2018-05-14T07:50:36.620Z,80.26
2018-05-14T07:53:02.510Z,80.73
2018-05-14T07:55:28.438Z,80.20
2018-05-14T07:57:54.349Z,80.42
2018-05-14T08:00:20.268Z,80.43
2018-05-14T08:02:46.165Z,80.59
2018-05-14T08:05:12.080Z,80.85
2018-05-14T08:07:37.959Z,80.52
2018-05-14T08:10:04.308Z,79.73
2018-05-14T08:12:30.277Z,80.04
2018-05-14T08:14:56.228Z,81.21
2018-05-14T08:17:22.088Z,82.19
2018-05-14T08:19:47.989Z,82.46
2018-05-14T08:22:14.135Z,80.53
2018-05-14T08:24:40.046Z,81.45
2018-05-14T08:27:05.943Z,80.53
2018-05-14T08:29:31.844Z,81.01
2018-05-14T08:31:57.888Z,81.15
2018-05-14T08:34:24.295Z,80.88
2018-05-14T08:36:50.231Z,80.95
2018-05-14T08:39:16.135Z,81.07
2018-05-14T08:41:42.076Z,82.27
2018-05-14T08:44:07.960Z,82.62
2018-05-14T08:46:33.842Z,83.10
2018-05-14T08:48:59.739Z,82.77
2018-05-14T08:51:25.619Z,81.42
2018-05-14T08:53:51.532Z,82.10
2018-05-14T08:56:17.452Z,82.29
2018-05-14T08:58:43.367Z,82.99
2018-05-14T09:01:09.272Z,83.05
2018-05-14T09:03:35.200Z,82.13
2018-05-14T09:06:01.128Z,82.67
2018-05-14T09:08:27.067Z,83.03
2018-05-14T09:10:52.972Z,82.05
2018-05-14T09:13:18.850Z,82.32
2018-05-14T09:15:44.801Z,81.39
2018-05-14T09:18:10.765Z,82.07
2018-05-14T09:20:36.649Z,83.27
2018-05-14T09:23:02.597Z,82.97
2018-05-14T09:25:28.589Z,82.26
2018-05-14T09:27:54.451Z,82.77
2018-05-14T09:30:20.390Z,82.62
2018-05-14T09:32:46.811Z,82.52
2018-05-14T09:35:12.753Z,82.42
2018-05-14T09:37:38.656Z,82.54
2018-05-14T09:40:04.608Z,83.64
2018-05-14T09:42:30.545Z,83.10
2018-05-14T09:44:56.434Z,81.57
2018-05-14T09:47:24.744Z,82.25
2018-05-14T09:49:50.647Z,81.65
2018-05-14T09:52:20.371Z,81.16
2018-05-14T09:54:46.289Z,80.87
2018-05-14T09:57:16.235Z,80.65
2018-05-14T09:59:42.119Z,81.51
2018-05-14T10:02:08.876Z,81.17
2018-05-14T10:04:34.794Z,80.55
2018-05-14T10:07:04.716Z,80.58
2018-05-14T10:09:30.612Z,80.90
2018-05-14T10:11:56.506Z,81.10
2018-05-14T10:14:22.858Z,81.28
2018-05-14T10:16:48.863Z,82.25
2018-05-14T10:19:15.578Z,82.31
2018-05-14T10:21:41.478Z,81.50
2018-05-14T10:24:10.423Z,81.17
2018-05-14T10:26:36.355Z,81.01
2018-05-14T10:29:05.862Z,81.33
2018-05-14T10:31:32.183Z,82.13
2018-05-14T10:33:59.269Z,82.44
2018-05-14T10:36:25.177Z,82.95
2018-05-14T10:38:54.278Z,82.36
2018-05-14T10:52:02.273Z,81.80
2018-05-14T10:54:28.296Z,81.42
2018-05-14T10:56:54.227Z,81.75
2018-05-14T10:59:20.123Z,82.08
2018-05-14T11:01:46.026Z,82.96
2018-05-14T11:04:11.971Z,82.54
2018-05-14T11:06:37.891Z,82.26
2018-05-14T11:09:03.826Z,82.39
2018-05-14T11:17:15.608Z,82.54
2018-05-14T11:19:41.538Z,82.50
2018-05-14T11:22:07.410Z,81.53
2018-05-14T11:24:33.330Z,80.92
2018-05-14T11:26:59.270Z,81.19
2018-05-14T11:29:25.146Z,81.32
2018-05-14T11:31:51.142Z,81.52
2018-05-14T11:34:17.054Z,81.42
2018-05-14T11:36:42.945Z,80.00
2018-05-14T11:39:08.970Z,80.40
2018-05-14T11:41:34.855Z,80.60
2018-05-14T11:44:00.799Z,81.00
2018-05-14T11:46:26.722Z,80.93
2018-05-14T11:48:52.619Z,80.89
2018-05-14T11:51:18.510Z,80.06
2018-05-14T11:53:44.407Z,80.38
2018-05-14T11:56:10.275Z,79.61
2018-05-14T11:58:36.178Z,80.03
2018-05-14T12:01:02.719Z,80.10
2018-05-14T12:03:28.619Z,79.94
2018-05-14T12:05:54.513Z,80.57
2018-05-14T12:08:20.420Z,80.24
2018-05-14T12:10:46.323Z,80.78
2018-05-14T12:13:15.346Z,80.49
2018-05-14T12:15:41.251Z,80.90
2018-05-14T12:18:10.674Z,79.88
2018-05-14T12:20:36.559Z,79.74
2018-05-14T12:23:02.505Z,80.18
2018-05-14T12:25:28.360Z,79.80
2018-05-14T12:27:54.251Z,79.99
2018-05-14T12:30:21.158Z,80.35
2018-05-14T12:32:47.575Z,81.26
2018-05-14T12:35:16.336Z,82.54
2018-05-14T12:37:42.231Z,81.23
2018-05-14T12:48:47.813Z,81.72
2018-05-14T12:51:13.751Z,81.72
2018-05-14T12:53:39.721Z,82.14
2018-05-14T12:56:07.159Z,82.27
2018-05-14T12:58:33.155Z,82.27
2018-05-14T13:01:00.972Z,83.05
2018-05-14T13:03:26.888Z,83.01
2018-05-14T13:05:56.694Z,83.36
2018-05-14T13:08:22.590Z,83.29
2018-05-14T13:10:50.006Z,82.10
2018-05-14T13:13:15.924Z,81.86
2018-05-14T13:15:42.487Z,82.75
2018-05-14T13:18:08.446Z,83.17
2018-05-14T13:20:34.348Z,83.11
2018-05-14T13:23:03.366Z,82.89
2018-05-14T13:25:29.498Z,83.16
2018-05-14T13:27:56.585Z,82.75
2018-05-14T13:30:22.637Z,82.45
2018-05-14T13:32:51.691Z,82.86
2018-05-14T13:35:17.749Z,83.86
2018-05-14T13:37:49.581Z,83.79
2018-05-14T13:40:17.250Z,83.38
2018-05-14T13:42:43.339Z,82.51
2018-05-14T13:45:09.317Z,81.72
2018-05-14T13:47:35.445Z,81.05
2018-05-14T13:50:01.808Z,76.80
2018-05-14T13:52:32.841Z,77.83
2018-05-14T13:54:59.470Z,78.85
2018-05-14T13:57:25.469Z,79.66
2018-05-14T13:59:51.365Z,80.55
2018-05-14T14:02:17.286Z,80.47
2018-05-14T14:04:43.260Z,81.39
2018-05-14T14:07:16.197Z,80.47
2018-05-14T14:09:45.013Z,80.45
2018-05-14T14:12:11.094Z,81.12
2018-05-14T14:14:36.996Z,79.60
2018-05-14T14:17:02.903Z,79.64
2018-05-14T14:19:28.853Z,80.35
2018-05-14T14:21:55.249Z,81.16
2018-05-14T14:24:21.208Z,80.95
2018-05-14T14:26:47.038Z,81.33
2018-05-14T14:29:12.979Z,81.60
2018-05-14T14:31:38.880Z,83.35
2018-05-14T14:34:12.537Z,84.24
2018-05-14T14:36:38.683Z,84.58
2018-05-14T14:39:11.885Z,83.64
2018-05-14T14:41:38.691Z,86.07
2018-05-14T14:44:04.614Z,86.35
2018-05-14T14:46:30.591Z,86.63
2018-05-14T14:48:56.474Z,86.90
2018-05-14T14:51:22.382Z,86.84
2018-05-14T14:53:48.298Z,85.79
2018-05-14T14:56:14.174Z,87.16
2018-05-14T14:58:40.075Z,87.21
2018-05-14T15:01:07.190Z,87.57
2018-05-14T15:03:33.391Z,87.01
2018-05-14T15:05:59.312Z,87.56
2018-05-14T15:08:25.161Z,87.35
2018-05-14T15:10:55.247Z,88.96
2018-05-14T15:13:21.413Z,88.40
2018-05-14T15:15:47.336Z,89.18
2018-05-14T15:18:13.256Z,88.04
2018-05-14T15:20:39.159Z,87.62
2018-05-14T15:23:07.139Z,87.99
2018-05-14T15:25:33.051Z,89.38
2018-05-14T15:28:02.531Z,89.24
2018-05-14T15:30:28.392Z,90.50
2018-05-14T15:32:56.893Z,90.73
2018-05-14T15:35:22.802Z,91.18
2018-05-14T15:37:52.224Z,91.18
2018-05-14T15:40:18.127Z,91.93
2018-05-14T15:42:44.015Z,92.09
2018-05-14T15:45:09.985Z,92.16
2018-05-14T15:47:35.923Z,93.56
2018-05-14T15:50:05.588Z,94.00
2018-05-14T15:52:31.574Z,93.91
2018-05-14T15:54:58.291Z,93.33
2018-05-14T15:57:24.193Z,92.24
2018-05-14T15:59:53.842Z,92.05
2018-05-14T16:02:19.743Z,92.60
2018-05-14T16:04:48.868Z,91.44
2018-05-14T16:07:14.795Z,91.25
2018-05-14T16:09:41.743Z,90.37
2018-05-14T16:12:07.627Z,89.99
2018-05-14T16:14:40.493Z,90.14
2018-05-14T16:17:10.471Z,90.29
2018-05-14T16:19:37.024Z,90.25
2018-05-14T16:22:02.966Z,90.33
2018-05-14T16:24:28.880Z,89.86
2018-05-14T16:26:54.815Z,91.26
2018-05-14T16:29:20.737Z,91.77
2018-05-14T16:31:46.658Z,92.17
2018-05-14T16:34:12.604Z,92.71
2018-05-14T16:36:38.497Z,93.17
2018-05-14T16:39:04.451Z,92.57
2018-05-14T16:41:33.504Z,93.54
2018-05-14T16:43:59.397Z,95.05
2018-05-14T16:46:28.968Z,95.60
2018-05-14T16:48:54.883Z,95.57
2018-05-14T16:51:22.481Z,96.26
2018-05-14T16:53:48.432Z,96.33
2018-05-14T16:56:19.560Z,96.59
2018-05-14T16:58:45.529Z,97.84
2018-05-14T17:01:18.734Z,98.03
2018-05-14T17:03:45.386Z,98.71
2018-05-14T17:06:18.476Z,99.71
2018-05-14T17:08:44.829Z,99.71
2018-05-14T17:11:18.951Z,99.14
2018-05-14T17:13:45.600Z,99.07
2018-05-14T17:16:11.510Z,98.31
2018-05-14T17:18:37.425Z,97.54
2018-05-14T17:21:03.360Z,96.51
2018-05-14T17:23:29.299Z,95.10
2018-05-14T17:25:55.229Z,94.82
2018-05-14T17:28:21.138Z,93.87
2018-05-14T17:30:47.011Z,92.83
2018-05-14T17:33:12.983Z,92.02
2018-05-14T17:35:39.091Z,91.30
2018-05-14T17:38:05.007Z,90.69
2018-05-14T17:40:38.807Z,91.57
2018-05-14T17:43:05.316Z,91.46
2018-05-14T17:45:31.239Z,90.87
2018-05-14T17:47:57.128Z,91.04
2018-05-14T17:50:32.204Z,91.67
2018-05-14T17:52:58.985Z,92.05
2018-05-14T17:55:24.811Z,93.04
2018-05-14T17:57:50.780Z,93.09
2018-05-14T18:00:16.641Z,92.76
2018-05-14T18:02:42.567Z,93.40
2018-05-14T18:05:08.563Z,92.50
2018-05-14T18:07:34.414Z,91.93
2018-05-14T18:10:00.255Z,91.38
2018-05-14T18:12:26.147Z,91.41
2018-05-14T18:14:52.044Z,91.87
2018-05-14T18:17:18.011Z,90.89
2018-05-14T18:19:50.157Z,90.36
2018-05-14T18:22:23.452Z,89.85
2018-05-14T18:24:50.293Z,89.46
2018-05-14T18:27:23.954Z,89.25
2018-05-14T18:29:53.984Z,89.73
2018-05-14T18:32:19.905Z,90.30
2018-05-14T18:34:45.828Z,89.84
2018-05-14T18:37:11.744Z,89.97
2018-05-14T18:39:37.655Z,90.05
2018-05-14T18:42:03.566Z,89.78
2018-05-14T18:44:33.475Z,89.71
2018-05-14T18:46:59.399Z,90.07
2018-05-14T18:49:25.306Z,90.90
2018-05-14T18:51:51.284Z,91.17
2018-05-14T18:56:48.718Z,93.51
2018-05-14T18:59:14.857Z,93.69
2018-05-14T19:01:41.197Z,95.10
2018-05-14T19:04:07.090Z,94.54
2018-05-14T19:06:33.008Z,93.91
2018-05-14T19:08:59.195Z,93.18
2018-05-14T19:11:31.079Z,91.78
2018-05-14T19:13:56.981Z,91.02
2018-05-14T19:16:29.991Z,90.94
2018-05-14T19:18:55.920Z,90.02
2018-05-14T19:21:21.868Z,89.68
2018-05-14T19:23:53.200Z,89.66
2018-05-14T19:26:19.105Z,89.37
2018-05-14T19:28:51.450Z,89.37
2018-05-14T19:31:17.364Z,89.40
2018-05-14T19:33:49.338Z,89.30
2018-05-14T19:36:15.279Z,89.44
2018-05-14T19:38:41.210Z,88.93
2018-05-14T19:41:07.112Z,89.13
2018-05-14T19:43:33.037Z,89.03
2018-05-14T19:45:58.971Z,89.26
2018-05-14T19:48:24.865Z,89.48
2018-05-14T19:50:50.804Z,89.29
2018-05-14T19:53:16.682Z,91.05
2018-05-14T19:55:42.822Z,90.31
2018-05-14T19:58:08.966Z,90.31
2018-05-14T20:00:34.865Z,90.16
2018-05-14T20:03:00.815Z,90.49
2018-05-14T20:05:26.719Z,92.17
2018-05-14T20:07:52.610Z,91.38
2018-05-14T20:10:18.523Z,92.21
2018-05-14T20:12:44.452Z,92.05
2018-05-14T20:15:10.332Z,91.42
2018-05-14T20:17:36.263Z,91.06
2018-05-14T20:20:02.597Z,91.05
2018-05-14T20:22:28.463Z,91.14
2018-05-14T20:24:54.415Z,91.36
2018-05-14T20:27:20.322Z,91.61
2018-05-14T20:29:46.264Z,91.34
2018-05-14T20:32:12.165Z,91.69
2018-05-14T20:34:38.096Z,91.73
2018-05-14T20:37:04.103Z,91.54
2018-05-14T20:39:29.934Z,91.22
2018-05-14T20:41:56.178Z,91.86
2018-05-14T20:44:22.113Z,92.91
2018-05-14T20:46:48.320Z,93.07
2018-05-14T20:49:14.256Z,93.26
2018-05-14T20:51:40.213Z,93.52
2018-05-14T20:54:06.133Z,93.50
2018-05-14T20:56:32.317Z,93.65
2018-05-14T20:58:58.237Z,94.00
2018-05-14T21:01:24.140Z,94.14
2018-05-14T21:03:50.044Z,94.31
2018-05-14T21:06:16.343Z,94.23
2018-05-14T21:08:42.318Z,94.15
2018-05-14T21:11:08.287Z,94.73
2018-05-14T21:13:34.199Z,94.12
2018-05-14T21:16:00.085Z,93.58
2018-05-14T21:18:26.003Z,94.02
2018-05-14T21:20:51.915Z,93.24
2018-05-14T21:23:17.847Z,92.79
2018-05-14T21:25:47.416Z,92.54
2018-05-14T21:28:13.324Z,91.71
2018-05-14T21:30:40.800Z,92.34
2018-05-14T21:33:06.682Z,92.76
2018-05-14T21:35:36.101Z,91.74
2018-05-14T21:38:02.028Z,91.52
2018-05-14T21:40:31.512Z,91.28
2018-05-14T21:42:57.404Z,91.50
2018-05-14T21:45:24.371Z,90.96
2018-05-14T21:47:50.286Z,90.87
2018-05-14T21:50:16.226Z,90.56
2018-05-14T21:52:42.134Z,90.89
2018-05-14T21:55:08.049Z,90.45
2018-05-14T21:57:37.726Z,90.49
2018-05-14T22:00:03.869Z,90.98
2018-05-14T22:02:31.416Z,90.77
2018-05-14T22:04:57.308Z,91.69
2018-05-14T22:07:26.686Z,92.11
2018-05-14T22:09:52.590Z,91.38
2018-05-14T22:12:22.136Z,91.10
2018-05-14T22:14:49.334Z,90.89
2018-05-14T22:17:15.292Z,90.36
2018-05-14T22:19:41.190Z,89.91
2018-05-14T22:22:10.308Z,90.59
2018-05-14T22:24:36.212Z,90.22
2018-05-14T22:27:02.131Z,89.77
2018-05-14T22:29:27.999Z,89.52
2018-05-14T22:31:53.912Z,90.07
2018-05-14T22:34:21.337Z,90.19
2018-05-14T22:36:47.218Z,89.77
2018-05-14T22:39:15.895Z,88.74
2018-05-14T22:41:41.824Z,88.07
2018-05-14T22:44:10.560Z,88.32
2018-05-14T22:46:36.492Z,88.63
2018-05-14T22:49:05.589Z,88.68
2018-05-14T22:51:31.515Z,88.42
2018-05-14T22:54:00.319Z,88.96
2018-05-14T22:56:26.214Z,88.67
2018-05-14T22:58:55.171Z,88.31
2018-05-14T23:01:21.081Z,88.41
2018-05-14T23:03:46.989Z,88.80
2018-05-14T23:06:12.924Z,88.39
2018-05-14T23:08:38.828Z,88.35
2018-05-14T23:11:07.034Z,89.61
2018-05-14T23:13:32.963Z,89.06
2018-05-14T23:16:02.535Z,88.54
2018-05-14T23:18:28.447Z,88.85
2018-05-14T23:20:57.828Z,89.00
2018-05-14T23:23:23.723Z,89.26
2018-05-14T23:25:50.864Z,89.65
2018-05-14T23:28:16.743Z,90.10
2018-05-14T23:30:46.607Z,90.54
2018-05-14T23:33:12.527Z,90.97
2018-05-14T23:35:41.507Z,90.47
2018-05-14T23:38:07.389Z,90.07
2018-05-14T23:40:33.303Z,89.46
2018-05-14T23:42:59.215Z,89.49
2018-05-14T23:45:25.140Z,89.74
2018-05-14T23:47:52.631Z,90.47
2018-05-14T23:50:18.542Z,90.15
2018-05-14T23:52:46.983Z,89.98
2018-05-14T23:55:12.887Z,89.34
2018-05-14T23:57:41.475Z,89.17
